sensor_id;sensor_type;location;lat;lon;timestamp;pressure;altitude;pressure_sealevel;temperature;humidity
50790;BME280;37287;47.554;7.844;2023-02-17T00:01:30;98953.69;;;5.86;92.47
50790;BME280;37287;47.554;7.844;2023-02-17T00:03:58;98950.34;;;5.89;92.30
50790;BME280;37287;47.554;7.844;2023-02-17T00:06:27;98948.16;;;5.91;91.89
50790;BME280;37287;47.554;7.844;2023-02-17T00:08:54;98948.16;;;5.91;92.06
50790;BME280;37287;47.554;7.844;2023-02-17T00:11:23;98947.84;;;5.93;91.79
50790;BME280;37287;47.554;7.844;2023-02-17T00:13:50;98949.09;;;5.95;91.76
50790;BME280;37287;47.554;7.844;2023-02-17T00:16:24;98946.41;;;5.95;91.70
50790;BME280;37287;47.554;7.844;2023-02-17T00:18:53;98950.66;;;5.96;91.78
50790;BME280;37287;47.554;7.844;2023-02-17T00:21:22;98952.28;;;5.97;91.40
50790;BME280;37287;47.554;7.844;2023-02-17T00:23:50;98954.16;;;5.97;91.38
50790;BME280;37287;47.554;7.844;2023-02-17T00:26:19;98955.44;;;5.99;92.20
50790;BME280;37287;47.554;7.844;2023-02-17T00:28:47;98953.88;;;5.98;91.96
50790;BME280;37287;47.554;7.844;2023-02-17T00:31:16;98958.94;;;6.00;91.94
50790;BME280;37287;47.554;7.844;2023-02-17T00:33:49;98958.94;;;6.00;91.92
50790;BME280;37287;47.554;7.844;2023-02-17T00:36:18;98959.72;;;6.00;92.36
50790;BME280;37287;47.554;7.844;2023-02-17T00:38:47;98954.00;;;6.02;92.11
50790;BME280;37287;47.554;7.844;2023-02-17T00:41:16;98959.72;;;6.00;92.85
50790;BME280;37287;47.554;7.844;2023-02-17T00:43:44;98964.75;;;6.02;92.70
50790;BME280;37287;47.554;7.844;2023-02-17T00:46:11;98965.88;;;6.01;92.53
50790;BME280;37287;47.554;7.844;2023-02-17T00:48:39;98962.06;;;6.02;92.87
50790;BME280;37287;47.554;7.844;2023-02-17T00:51:06;98954.00;;;6.02;92.84
50790;BME280;37287;47.554;7.844;2023-02-17T00:53:34;98966.34;;;6.03;92.75
50790;BME280;37287;47.554;7.844;2023-02-17T00:56:03;98965.25;;;6.04;92.65
50790;BME280;37287;47.554;7.844;2023-02-17T00:58:30;98960.66;;;6.05;92.87
50790;BME280;37287;47.554;7.844;2023-02-17T01:00:57;98962.25;;;6.06;92.76
50790;BME280;37287;47.554;7.844;2023-02-17T01:03:28;98970.75;;;6.08;92.89
50790;BME280;37287;47.554;7.844;2023-02-17T01:05:55;98969.66;;;6.09;92.38
50790;BME280;37287;47.554;7.844;2023-02-17T01:08:22;98969.66;;;6.09;92.95
50790;BME280;37287;47.554;7.844;2023-02-17T01:10:51;98972.03;;;6.10;92.76
50790;BME280;37287;47.554;7.844;2023-02-17T01:13:20;98972.53;;;6.12;92.69
50790;BME280;37287;47.554;7.844;2023-02-17T01:15:49;98964.44;;;6.12;92.81
50790;BME280;37287;47.554;7.844;2023-02-17T01:18:18;98959.06;;;6.12;92.80
50790;BME280;37287;47.554;7.844;2023-02-17T01:20:45;98953.38;;;6.14;92.77
50790;BME280;37287;47.554;7.844;2023-02-17T01:23:12;98963.00;;;6.15;92.88
50790;BME280;37287;47.554;7.844;2023-02-17T01:25:42;98947.69;;;6.15;92.60
50790;BME280;37287;47.554;7.844;2023-02-17T01:28:14;98955.41;;;6.17;92.70
50790;BME280;37287;47.554;7.844;2023-02-17T01:30:41;98946.25;;;6.18;92.57
50790;BME280;37287;47.554;7.844;2023-02-17T01:33:08;98957.47;;;6.20;92.89
50790;BME280;37287;47.554;7.844;2023-02-17T01:35:34;98948.31;;;6.21;92.64
50790;BME280;37287;47.554;7.844;2023-02-17T01:38:05;98947.19;;;6.22;92.73
50790;BME280;37287;47.554;7.844;2023-02-17T01:40:32;98947.19;;;6.22;92.48
50790;BME280;37287;47.554;7.844;2023-02-17T01:42:58;98953.34;;;6.23;92.04
50790;BME280;37287;47.554;7.844;2023-02-17T01:45:31;98957.94;;;6.22;92.39
50790;BME280;37287;47.554;7.844;2023-02-17T01:48:02;98959.06;;;6.21;91.36
50790;BME280;37287;47.554;7.844;2023-02-17T01:50:36;98962.06;;;6.19;91.65
50790;BME280;37287;47.554;7.844;2023-02-17T01:53:06;98956.38;;;6.21;91.40
50790;BME280;37287;47.554;7.844;2023-02-17T01:55:38;98954.47;;;6.22;91.42
50790;BME280;37287;47.554;7.844;2023-02-17T01:58:20;98952.56;;;6.22;91.02
50790;BME280;37287;47.554;7.844;2023-02-17T02:00:51;98948.75;;;6.23;90.66
50790;BME280;37287;47.554;7.844;2023-02-17T02:03:19;98947.97;;;6.23;91.20
50790;BME280;37287;47.554;7.844;2023-02-17T02:05:46;98947.97;;;6.23;91.15
50790;BME280;37287;47.554;7.844;2023-02-17T02:08:13;98931.06;;;6.22;91.49
50790;BME280;37287;47.554;7.844;2023-02-17T02:10:40;98933.44;;;6.24;91.42
50790;BME280;37287;47.554;7.844;2023-02-17T02:13:07;98928.84;;;6.24;91.45
50790;BME280;37287;47.554;7.844;2023-02-17T02:15:43;98926.59;;;6.26;91.39
50790;BME280;37287;47.554;7.844;2023-02-17T02:24:06;98924.53;;;6.32;90.68
50790;BME280;37287;47.554;7.844;2023-02-17T02:30:02;98934.66;;;6.35;90.95
50790;BME280;37287;47.554;7.844;2023-02-17T02:32:53;98926.91;;;6.33;91.42
50790;BME280;37287;47.554;7.844;2023-02-17T02:38:20;98926.91;;;6.33;92.11
50790;BME280;37287;47.554;7.844;2023-02-17T02:40:58;98920.59;;;6.29;92.07
50790;BME280;37287;47.554;7.844;2023-02-17T02:43:30;98922.81;;;6.27;92.65
50790;BME280;37287;47.554;7.844;2023-02-17T02:45:59;98925.03;;;6.25;92.97
50790;BME280;37287;47.554;7.844;2023-02-17T02:48:28;98917.28;;;6.24;92.83
50790;BME280;37287;47.554;7.844;2023-02-17T03:02:24;98929.19;;;6.14;94.73
50790;BME280;37287;47.554;7.844;2023-02-17T03:07:58;98922.53;;;6.11;95.74
50790;BME280;37287;47.554;7.844;2023-02-17T03:10:26;98925.53;;;6.10;95.51
50790;BME280;37287;47.554;7.844;2023-02-17T03:12:55;98922.84;;;6.10;95.11
50790;BME280;37287;47.554;7.844;2023-02-17T03:17:48;98918.13;;;6.07;95.38
50790;BME280;37287;47.554;7.844;2023-02-17T03:20:19;98918.13;;;6.07;95.56
50790;BME280;37287;47.554;7.844;2023-02-17T03:22:49;98930.44;;;6.08;96.08
50790;BME280;37287;47.554;7.844;2023-02-17T03:25:17;98919.22;;;6.06;95.73
50790;BME280;37287;47.554;7.844;2023-02-17T03:27:46;98923.50;;;6.07;96.21
50790;BME280;37287;47.554;7.844;2023-02-17T03:30:13;98922.38;;;6.08;96.50
50790;BME280;37287;47.554;7.844;2023-02-17T03:32:40;98919.69;;;6.08;96.69
50790;BME280;37287;47.554;7.844;2023-02-17T03:35:07;98917.31;;;6.06;96.70
50790;BME280;37287;47.554;7.844;2023-02-17T03:37:34;98927.28;;;6.06;97.09
50790;BME280;37287;47.554;7.844;2023-02-17T03:40:01;98920.81;;;6.07;97.24
50790;BME280;37287;47.554;7.844;2023-02-17T03:42:30;98919.22;;;6.06;96.94
50790;BME280;37287;47.554;7.844;2023-02-17T03:44:57;98919.22;;;6.06;97.30
50790;BME280;37287;47.554;7.844;2023-02-17T03:47:25;98918.13;;;6.07;97.14
50790;BME280;37287;47.554;7.844;2023-02-17T03:49:55;98917.00;;;6.08;97.05
50790;BME280;37287;47.554;7.844;2023-02-17T03:52:22;98919.69;;;6.08;96.72
50790;BME280;37287;47.554;7.844;2023-02-17T03:54:49;98918.25;;;6.10;96.62
50790;BME280;37287;47.554;7.844;2023-02-17T03:57:19;98911.00;;;6.11;96.83
50790;BME280;37287;47.554;7.844;2023-02-17T03:59:46;98927.59;;;6.13;96.61
50790;BME280;37287;47.554;7.844;2023-02-17T04:02:13;98914.59;;;6.15;96.11
50790;BME280;37287;47.554;7.844;2023-02-17T04:04:39;98919.38;;;6.18;95.73
50790;BME280;37287;47.554;7.844;2023-02-17T04:07:06;98918.72;;;6.21;95.57
50790;BME280;37287;47.554;7.844;2023-02-17T04:09:33;98913.34;;;6.21;95.18
50790;BME280;37287;47.554;7.844;2023-02-17T04:12:03;98925.97;;;6.20;95.29
50790;BME280;37287;47.554;7.844;2023-02-17T04:14:32;98921.72;;;6.19;95.72
50790;BME280;37287;47.554;7.844;2023-02-17T04:16:59;98926.31;;;6.19;96.08
50790;BME280;37287;47.554;7.844;2023-02-17T04:19:26;98926.63;;;6.17;96.46
50790;BME280;37287;47.554;7.844;2023-02-17T04:21:53;98933.13;;;6.16;96.91
50790;BME280;37287;47.554;7.844;2023-02-17T04:24:19;98929.97;;;6.14;96.83
50790;BME280;37287;47.554;7.844;2023-02-17T04:26:46;98923.81;;;6.14;96.66
50790;BME280;37287;47.554;7.844;2023-02-17T04:29:15;98929.19;;;6.14;96.48
50790;BME280;37287;47.554;7.844;2023-02-17T04:31:42;98924.56;;;6.14;96.54
50790;BME280;37287;47.554;7.844;2023-02-17T04:34:10;98916.19;;;6.16;96.18
50790;BME280;37287;47.554;7.844;2023-02-17T04:36:37;98922.38;;;6.16;96.43
50790;BME280;37287;47.554;7.844;2023-02-17T04:39:05;98920.91;;;6.19;95.91
50790;BME280;37287;47.554;7.844;2023-02-17T04:41:32;98909.38;;;6.18;95.91
50790;BME280;37287;47.554;7.844;2023-02-17T04:43:58;98903.22;;;6.18;95.83
50790;BME280;37287;47.554;7.844;2023-02-17T04:46:25;98907.03;;;6.17;96.29
50790;BME280;37287;47.554;7.844;2023-02-17T04:48:53;98917.78;;;6.17;96.53
50790;BME280;37287;47.554;7.844;2023-02-17T04:51:20;98918.56;;;6.17;96.75
50790;BME280;37287;47.554;7.844;2023-02-17T04:53:47;98912.41;;;6.17;97.15
50790;BME280;37287;47.554;7.844;2023-02-17T04:56:15;98903.22;;;6.18;97.35
50790;BME280;37287;47.554;7.844;2023-02-17T04:58:42;98908.59;;;6.18;97.31
50790;BME280;37287;47.554;7.844;2023-02-17T05:01:09;98904.34;;;6.17;97.53
50790;BME280;37287;47.554;7.844;2023-02-17T05:03:42;98905.91;;;6.18;97.50
50790;BME280;37287;47.554;7.844;2023-02-17T05:06:09;98897.38;;;6.16;98.01
50790;BME280;37287;47.554;7.844;2023-02-17T05:08:35;98899.72;;;6.17;97.41
50790;BME280;37287;47.554;7.844;2023-02-17T05:11:05;98917.00;;;6.16;97.69
50790;BME280;37287;47.554;7.844;2023-02-17T05:13:32;98904.00;;;6.18;97.27
50790;BME280;37287;47.554;7.844;2023-02-17T05:15:58;98904.78;;;6.19;96.66
50790;BME280;37287;47.554;7.844;2023-02-17T05:18:25;98904.78;;;6.19;97.15
50790;BME280;37287;47.554;7.844;2023-02-17T05:20:52;98908.28;;;6.19;97.35
50790;BME280;37287;47.554;7.844;2023-02-17T05:23:20;98908.59;;;6.18;96.92
50790;BME280;37287;47.554;7.844;2023-02-17T05:25:58;98909.38;;;6.18;96.83
50790;BME280;37287;47.554;7.844;2023-02-17T05:28:24;98915.53;;;6.19;97.52
50790;BME280;37287;47.554;7.844;2023-02-17T05:30:51;98910.16;;;6.19;97.37
50790;BME280;37287;47.554;7.844;2023-02-17T05:33:21;98907.47;;;6.19;97.40
50790;BME280;37287;47.554;7.844;2023-02-17T05:35:49;98910.97;;;6.19;97.65
50790;BME280;37287;47.554;7.844;2023-02-17T05:38:16;98917.13;;;6.20;97.37
50790;BME280;37287;47.554;7.844;2023-02-17T05:40:44;98911.91;;;6.24;97.44
50790;BME280;37287;47.554;7.844;2023-02-17T05:43:13;98913.03;;;6.23;97.15
50790;BME280;37287;47.554;7.844;2023-02-17T05:45:39;98910.78;;;6.25;97.64
50790;BME280;37287;47.554;7.844;2023-02-17T05:48:06;98914.28;;;6.25;98.01
50790;BME280;37287;47.554;7.844;2023-02-17T05:50:33;98908.25;;;6.28;98.67
50790;BME280;37287;47.554;7.844;2023-02-17T05:52:59;98908.25;;;6.28;99.03
50790;BME280;37287;47.554;7.844;2023-02-17T05:55:29;98914.41;;;6.29;98.76
50790;BME280;37287;47.554;7.844;2023-02-17T05:57:57;98915.22;;;6.29;99.36
50790;BME280;37287;47.554;7.844;2023-02-17T06:00:24;98919.47;;;6.30;100.00
50790;BME280;37287;47.554;7.844;2023-02-17T06:02:51;98918.22;;;6.28;100.00
50790;BME280;37287;47.554;7.844;2023-02-17T06:05:20;98920.59;;;6.29;99.90
50790;BME280;37287;47.554;7.844;2023-02-17T06:07:47;98922.16;;;6.30;100.00
50790;BME280;37287;47.554;7.844;2023-02-17T06:10:15;98926.09;;;6.33;100.00
50790;BME280;37287;47.554;7.844;2023-02-17T06:12:42;98919.94;;;6.32;100.00
50790;BME280;37287;47.554;7.844;2023-02-17T06:15:08;98922.97;;;6.31;100.00
50790;BME280;37287;47.554;7.844;2023-02-17T06:17:37;98925.34;;;6.32;100.00
50790;BME280;37287;47.554;7.844;2023-02-17T06:20:07;98938.78;;;6.32;100.00
50790;BME280;37287;47.554;7.844;2023-02-17T06:22:33;98929.59;;;6.33;100.00
50790;BME280;37287;47.554;7.844;2023-02-17T06:25:00;98926.91;;;6.33;100.00
50790;BME280;37287;47.554;7.844;2023-02-17T06:27:27;98928.47;;;6.34;100.00
50790;BME280;37287;47.554;7.844;2023-02-17T06:29:56;98927.38;;;6.35;100.00
50790;BME280;37287;47.554;7.844;2023-02-17T06:32:27;98934.34;;;6.36;100.00
50790;BME280;37287;47.554;7.844;2023-02-17T06:34:53;98940.19;;;6.39;100.00
50790;BME280;37287;47.554;7.844;2023-02-17T06:37:20;98937.16;;;6.40;100.00
50790;BME280;37287;47.554;7.844;2023-02-17T06:39:46;98943.16;;;6.46;100.00
50790;BME280;37287;47.554;7.844;2023-02-17T06:42:13;98944.56;;;6.52;100.00
50790;BME280;37287;47.554;7.844;2023-02-17T06:44:39;98947.41;;;6.56;100.00
50790;BME280;37287;47.554;7.844;2023-02-17T06:47:06;98950.56;;;6.58;100.00
50790;BME280;37287;47.554;7.844;2023-02-17T06:49:33;98955.63;;;6.59;100.00
50790;BME280;37287;47.554;7.844;2023-02-17T06:51:59;98943.44;;;6.62;100.00
50790;BME280;37287;47.554;7.844;2023-02-17T06:54:32;98951.63;;;6.65;100.00
50790;BME280;37287;47.554;7.844;2023-02-17T06:56:59;98959.06;;;6.68;100.00
50790;BME280;37287;47.554;7.844;2023-02-17T06:59:25;98957.31;;;6.72;100.00
50790;BME280;37287;47.554;7.844;2023-02-17T07:01:54;98956.81;;;6.79;100.00
50790;BME280;37287;47.554;7.844;2023-02-17T07:04:20;98958.19;;;6.85;99.24
50790;BME280;37287;47.554;7.844;2023-02-17T07:06:47;98963.88;;;6.93;99.01
50790;BME280;37287;47.554;7.844;2023-02-17T07:09:15;98970.34;;;7.00;98.59
50790;BME280;37287;47.554;7.844;2023-02-17T07:11:42;98965.22;;;7.08;98.43
50790;BME280;37287;47.554;7.844;2023-02-17T07:14:10;98966.94;;;7.12;98.32
50790;BME280;37287;47.554;7.844;2023-02-17T07:16:38;98967.53;;;7.18;97.68
50790;BME280;37287;47.554;7.844;2023-02-17T07:19:05;98962.44;;;7.25;96.97
50790;BME280;37287;47.554;7.844;2023-02-17T07:21:32;98975.53;;;7.35;96.45
50790;BME280;37287;47.554;7.844;2023-02-17T07:23:58;98969.75;;;7.46;95.35
50790;BME280;37287;47.554;7.844;2023-02-17T07:26:24;98982.16;;;7.59;94.40
50790;BME280;37287;47.554;7.844;2023-02-17T07:28:51;98983.69;;;7.69;93.64
50790;BME280;37287;47.554;7.844;2023-02-17T07:31:24;98977.78;;;7.75;94.09
50790;BME280;37287;47.554;7.844;2023-02-17T07:33:51;98975.34;;;7.83;93.29
50790;BME280;37287;47.554;7.844;2023-02-17T07:36:23;98969.09;;;7.91;93.30
50790;BME280;37287;47.554;7.844;2023-02-17T07:38:52;98978.56;;;7.97;92.21
50790;BME280;37287;47.554;7.844;2023-02-17T07:41:22;98986.88;;;8.04;90.86
50790;BME280;37287;47.554;7.844;2023-02-17T07:43:59;98982.41;;;8.08;90.35
50790;BME280;37287;47.554;7.844;2023-02-17T07:46:27;98981.31;;;8.09;90.68
50790;BME280;37287;47.554;7.844;2023-02-17T07:48:56;98987.47;;;8.10;90.40
50790;BME280;37287;47.554;7.844;2023-02-17T07:51:24;98991.41;;;8.13;90.60
50790;BME280;37287;47.554;7.844;2023-02-17T07:53:51;98995.72;;;8.14;90.38
50790;BME280;37287;47.554;7.844;2023-02-17T07:56:20;98993.16;;;8.17;90.71
50790;BME280;37287;47.554;7.844;2023-02-17T07:58:48;99006.41;;;8.22;90.78
50790;BME280;37287;47.554;7.844;2023-02-17T08:01:18;99000.47;;;8.29;89.91
50790;BME280;37287;47.554;7.844;2023-02-17T08:03:46;99010.75;;;8.36;89.59
50790;BME280;37287;47.554;7.844;2023-02-17T08:06:15;99012.88;;;8.42;88.74
50790;BME280;37287;47.554;7.844;2023-02-17T08:08:41;99023.06;;;8.46;88.85
50790;BME280;37287;47.554;7.844;2023-02-17T08:11:27;99024.28;;;8.48;88.67
50790;BME280;37287;47.554;7.844;2023-02-17T08:14:15;99022.16;;;8.54;88.92
50790;BME280;37287;47.554;7.844;2023-02-17T08:16:43;99032.66;;;8.55;89.19
50790;BME280;37287;47.554;7.844;2023-02-17T08:19:10;99034.78;;;8.62;88.57
50790;BME280;37287;47.554;7.844;2023-02-17T08:21:38;99034.91;;;8.66;88.53
50790;BME280;37287;47.554;7.844;2023-02-17T08:24:17;99037.72;;;8.69;88.26
50790;BME280;37287;47.554;7.844;2023-02-17T08:26:45;99037.53;;;8.74;87.48
50790;BME280;37287;47.554;7.844;2023-02-17T08:29:12;99037.75;;;8.82;87.06
50790;BME280;37287;47.554;7.844;2023-02-17T08:31:41;99038.47;;;8.91;85.25
50790;BME280;37287;47.554;7.844;2023-02-17T08:34:10;99046.91;;;9.02;84.29
50790;BME280;37287;47.554;7.844;2023-02-17T08:37:03;99043.53;;;9.17;84.82
50790;BME280;37287;47.554;7.844;2023-02-17T08:39:33;99038.03;;;9.38;83.59
50790;BME280;37287;47.554;7.844;2023-02-17T08:42:01;99042.53;;;9.59;83.23
50790;BME280;37287;47.554;7.844;2023-02-17T08:44:28;99046.63;;;9.81;82.35
50790;BME280;37287;47.554;7.844;2023-02-17T08:46:56;99053.81;;;10.02;81.63
50790;BME280;37287;47.554;7.844;2023-02-17T08:49:24;99056.22;;;10.19;81.29
50790;BME280;37287;47.554;7.844;2023-02-17T08:51:52;99056.44;;;10.26;79.95
50790;BME280;37287;47.554;7.844;2023-02-17T08:54:19;99059.38;;;10.33;78.69
50790;BME280;37287;47.554;7.844;2023-02-17T08:56:45;99059.13;;;10.39;78.97
50790;BME280;37287;47.554;7.844;2023-02-17T08:59:12;99066.56;;;10.42;78.99
50790;BME280;37287;47.554;7.844;2023-02-17T09:01:41;99072.44;;;10.44;79.43
50790;BME280;37287;47.554;7.844;2023-02-17T09:04:11;99067.34;;;10.42;79.68
50790;BME280;37287;47.554;7.844;2023-02-17T09:06:41;99074.44;;;10.47;79.35
50790;BME280;37287;47.554;7.844;2023-02-17T09:09:11;99070.03;;;10.55;79.72
50790;BME280;37287;47.554;7.844;2023-02-17T09:11:41;99069.75;;;10.60;79.60
50790;BME280;37287;47.554;7.844;2023-02-17T09:14:10;99069.69;;;10.72;79.78
50790;BME280;37287;47.554;7.844;2023-02-17T09:16:37;99078.38;;;10.94;78.96
50790;BME280;37287;47.554;7.844;2023-02-17T09:19:06;99085.81;;;11.13;76.98
50790;BME280;37287;47.554;7.844;2023-02-17T09:21:34;99080.50;;;11.32;76.68
50790;BME280;37287;47.554;7.844;2023-02-17T09:24:01;99082.06;;;11.49;75.64
50790;BME280;37287;47.554;7.844;2023-02-17T09:26:27;99086.66;;;11.65;75.94
50790;BME280;37287;47.554;7.844;2023-02-17T09:28:56;99087.69;;;11.76;74.97
50790;BME280;37287;47.554;7.844;2023-02-17T09:31:25;99097.03;;;11.79;74.51
50790;BME280;37287;47.554;7.844;2023-02-17T09:33:53;99095.50;;;11.78;74.48
50790;BME280;37287;47.554;7.844;2023-02-17T09:36:25;99103.44;;;11.70;75.04
50790;BME280;37287;47.554;7.844;2023-02-17T09:38:59;99105.94;;;11.60;75.35
50790;BME280;37287;47.554;7.844;2023-02-17T09:43:58;99105.47;;;11.58;76.37
50790;BME280;37287;47.554;7.844;2023-02-17T09:46:39;99102.88;;;11.45;76.89
50790;BME280;37287;47.554;7.844;2023-02-17T09:49:25;99098.94;;;11.43;78.16
50790;BME280;37287;47.554;7.844;2023-02-17T09:52:17;99098.34;;;11.49;78.19
50790;BME280;37287;47.554;7.844;2023-02-17T09:55:08;99097.88;;;11.47;78.54
50790;BME280;37287;47.554;7.844;2023-02-17T09:57:47;99096.22;;;11.43;78.82
50790;BME280;37287;47.554;7.844;2023-02-17T10:00:31;99104.63;;;11.38;79.00
50790;BME280;37287;47.554;7.844;2023-02-17T10:06:41;99107.94;;;11.15;80.72
50790;BME280;37287;47.554;7.844;2023-02-17T10:08:51;99106.97;;;11.07;81.66
50790;BME280;37287;47.554;7.844;2023-02-17T10:14:01;99103.81;;;11.05;83.46
50790;BME280;37287;47.554;7.844;2023-02-17T10:16:35;99100.69;;;11.03;83.99
50790;BME280;37287;47.554;7.844;2023-02-17T10:19:11;99103.63;;;10.98;83.77
50790;BME280;37287;47.554;7.844;2023-02-17T10:21:41;99101.28;;;10.96;86.22
50790;BME280;37287;47.554;7.844;2023-02-17T10:24:11;99104.84;;;10.84;86.28
50790;BME280;37287;47.554;7.844;2023-02-17T10:26:47;99109.56;;;10.72;87.28
50790;BME280;37287;47.554;7.844;2023-02-17T10:34:36;99106.53;;;10.61;90.12
50790;BME280;37287;47.554;7.844;2023-02-17T10:37:29;99105.41;;;10.62;91.03
50790;BME280;37287;47.554;7.844;2023-02-17T10:39:56;99095.19;;;10.71;92.32
50790;BME280;37287;47.554;7.844;2023-02-17T10:42:27;99097.91;;;10.71;92.45
50790;BME280;37287;47.554;7.844;2023-02-17T10:47:38;99102.19;;;10.72;94.04
50790;BME280;37287;47.554;7.844;2023-02-17T10:50:21;99096.09;;;10.75;94.52
50790;BME280;37287;47.554;7.844;2023-02-17T10:52:49;99087.22;;;10.62;95.79
50790;BME280;37287;47.554;7.844;2023-02-17T10:55:34;99089.59;;;10.64;97.49
50790;BME280;37287;47.554;7.844;2023-02-17T10:58:25;99093.22;;;10.56;98.70
50790;BME280;37287;47.554;7.844;2023-02-17T11:01:02;99086.94;;;10.52;99.61
50790;BME280;37287;47.554;7.844;2023-02-17T11:03:32;99084.91;;;10.48;100.00
50790;BME280;37287;47.554;7.844;2023-02-17T11:06:02;99081.38;;;10.60;100.00
50790;BME280;37287;47.554;7.844;2023-02-17T11:11:18;99081.84;;;10.78;99.84
50790;BME280;37287;47.554;7.844;2023-02-17T11:14:11;99074.25;;;10.84;99.00
50790;BME280;37287;47.554;7.844;2023-02-17T11:16:48;99067.53;;;10.94;99.54
50790;BME280;37287;47.554;7.844;2023-02-17T11:19:23;99070.06;;;11.02;98.28
50790;BME280;37287;47.554;7.844;2023-02-17T11:21:56;99060.38;;;11.17;97.96
50790;BME280;37287;47.554;7.844;2023-02-17T11:24:25;99058.34;;;11.30;97.12
50790;BME280;37287;47.554;7.844;2023-02-17T11:27:04;99054.59;;;11.51;97.46
50790;BME280;37287;47.554;7.844;2023-02-17T11:29:31;99059.00;;;11.59;97.25
50790;BME280;37287;47.554;7.844;2023-02-17T11:32:09;99060.31;;;11.65;95.92
50790;BME280;37287;47.554;7.844;2023-02-17T11:34:42;99060.94;;;11.59;94.65
50790;BME280;37287;47.554;7.844;2023-02-17T11:37:18;99053.25;;;11.61;94.89
50790;BME280;37287;47.554;7.844;2023-02-17T11:39:49;99055.53;;;11.59;94.26
50790;BME280;37287;47.554;7.844;2023-02-17T11:42:23;99058.69;;;11.61;93.75
50790;BME280;37287;47.554;7.844;2023-02-17T11:45:05;99065.78;;;11.49;94.51
50790;BME280;37287;47.554;7.844;2023-02-17T11:48:07;99063.84;;;11.50;95.56
50790;BME280;37287;47.554;7.844;2023-02-17T11:50:48;99055.91;;;11.41;95.24
50790;BME280;37287;47.554;7.844;2023-02-17T11:53:49;99051.34;;;11.45;96.16
50790;BME280;37287;47.554;7.844;2023-02-17T11:56:22;99049.78;;;11.44;96.95
50790;BME280;37287;47.554;7.844;2023-02-17T12:02:17;99056.63;;;11.38;98.69
50790;BME280;37287;47.554;7.844;2023-02-17T12:05:05;99053.63;;;11.43;98.97
50790;BME280;37287;47.554;7.844;2023-02-17T12:16:17;99043.06;;;11.38;98.43
50790;BME280;37287;47.554;7.844;2023-02-17T12:19:16;99043.66;;;11.47;97.88
50790;BME280;37287;47.554;7.844;2023-02-17T12:21:50;99033.50;;;11.44;96.99
50790;BME280;37287;47.554;7.844;2023-02-17T12:24:45;99034.63;;;11.43;97.76
50790;BME280;37287;47.554;7.844;2023-02-17T12:27:43;99039.81;;;11.48;97.23
50790;BME280;37287;47.554;7.844;2023-02-17T12:33:33;99031.16;;;11.78;95.55
50790;BME280;37287;47.554;7.844;2023-02-17T12:36:12;99032.16;;;11.90;93.85
50790;BME280;37287;47.554;7.844;2023-02-17T12:41:51;99030.41;;;11.97;94.83
50790;BME280;37287;47.554;7.844;2023-02-17T12:44:32;99019.19;;;11.99;93.12
50790;BME280;37287;47.554;7.844;2023-02-17T12:47:04;99020.03;;;12.03;92.98
50790;BME280;37287;47.554;7.844;2023-02-17T12:49:36;99027.06;;;12.04;91.88
50790;BME280;37287;47.554;7.844;2023-02-17T12:52:18;99025.47;;;12.03;91.86
50790;BME280;37287;47.554;7.844;2023-02-17T12:57:37;99016.47;;;12.18;91.67
50790;BME280;37287;47.554;7.844;2023-02-17T13:00:19;99018.69;;;12.13;90.31
50790;BME280;37287;47.554;7.844;2023-02-17T13:02:46;99015.69;;;12.18;90.32
50790;BME280;37287;47.554;7.844;2023-02-17T13:05:24;99022.13;;;12.29;90.47
50790;BME280;37287;47.554;7.844;2023-02-17T13:08:03;99014.63;;;12.23;88.96
50790;BME280;37287;47.554;7.844;2023-02-17T13:10:37;99017.50;;;12.10;88.74
50790;BME280;37287;47.554;7.844;2023-02-17T13:13:34;99015.78;;;12.21;89.19
50790;BME280;37287;47.554;7.844;2023-02-17T13:16:09;99018.91;;;12.24;89.68
50790;BME280;37287;47.554;7.844;2023-02-17T13:19:05;99022.03;;;12.26;89.56
50790;BME280;37287;47.554;7.844;2023-02-17T13:21:32;99017.28;;;12.19;89.29
50790;BME280;37287;47.554;7.844;2023-02-17T13:24:04;99012.75;;;12.27;89.87
50790;BME280;37287;47.554;7.844;2023-02-17T13:26:37;99020.13;;;12.26;89.68
50790;BME280;37287;47.554;7.844;2023-02-17T13:29:19;99011.34;;;12.33;90.30
50790;BME280;37287;47.554;7.844;2023-02-17T13:31:55;99017.41;;;12.26;90.06
50790;BME280;37287;47.554;7.844;2023-02-17T13:34:25;99010.78;;;12.24;90.38
50790;BME280;37287;47.554;7.844;2023-02-17T13:36:52;99016.97;;;12.24;90.17
50790;BME280;37287;47.554;7.844;2023-02-17T13:42:01;99010.13;;;12.11;90.09
50790;BME280;37287;47.554;7.844;2023-02-17T13:44:31;98997.06;;;12.16;90.67
50790;BME280;37287;47.554;7.844;2023-02-17T13:47:05;99003.03;;;12.26;91.46
50790;BME280;37287;47.554;7.844;2023-02-17T13:49:38;99000.47;;;12.33;91.25
50790;BME280;37287;47.554;7.844;2023-02-17T13:52:08;99004.38;;;12.35;91.13
50790;BME280;37287;47.554;7.844;2023-02-17T13:54:38;98995.09;;;12.36;90.20
50790;BME280;37287;47.554;7.844;2023-02-17T13:57:21;98999.44;;;12.41;90.08
50790;BME280;37287;47.554;7.844;2023-02-17T14:02:46;99003.31;;;12.40;88.90
50790;BME280;37287;47.554;7.844;2023-02-17T14:05:27;99006.91;;;12.44;89.12
50790;BME280;37287;47.554;7.844;2023-02-17T14:08:18;99013.88;;;12.45;88.59
50790;BME280;37287;47.554;7.844;2023-02-17T14:10:45;99003.13;;;12.52;89.19
50790;BME280;37287;47.554;7.844;2023-02-17T14:13:12;99011.00;;;12.58;88.92
50790;BME280;37287;47.554;7.844;2023-02-17T14:15:54;99015.41;;;12.66;88.97
50790;BME280;37287;47.554;7.844;2023-02-17T14:18:43;99013.19;;;12.71;89.04
50790;BME280;37287;47.554;7.844;2023-02-17T14:21:22;99016.63;;;12.68;87.93
50790;BME280;37287;47.554;7.844;2023-02-17T14:23:52;99013.56;;;12.70;88.27
50790;BME280;37287;47.554;7.844;2023-02-17T14:26:36;99021.72;;;12.70;87.76
50790;BME280;37287;47.554;7.844;2023-02-17T14:29:07;99020.53;;;12.71;88.21
50790;BME280;37287;47.554;7.844;2023-02-17T14:31:39;99016.28;;;12.70;87.88
50790;BME280;37287;47.554;7.844;2023-02-17T14:34:29;99022.84;;;12.69;88.52
50790;BME280;37287;47.554;7.844;2023-02-17T14:37:15;99014.28;;;12.67;88.59
50790;BME280;37287;47.554;7.844;2023-02-17T14:39:46;99014.56;;;12.62;88.70
50790;BME280;37287;47.554;7.844;2023-02-17T14:42:13;99012.63;;;12.62;88.97